createdAt,value
2023-08-29T00:00:59.324Z,0.4
2023-08-29T00:02:07.994Z,0.3
2023-08-29T00:03:16.712Z,0.3
2023-08-29T00:04:26.440Z,0.3
2023-08-29T00:05:34.130Z,0.3
2023-08-29T00:06:43.777Z,0.3
2023-08-29T00:07:52.507Z,0.3
2023-08-29T00:09:00.143Z,0.3
2023-08-29T00:10:09.876Z,0.3
2023-08-29T00:11:18.538Z,0.3
2023-08-29T00:12:27.243Z,0.3
2023-08-29T00:13:36.939Z,0.4
2023-08-29T00:14:44.641Z,0.3
2023-08-29T00:15:54.396Z,0.3
2023-08-29T00:17:03.073Z,0.3
2023-08-29T00:18:12.777Z,0.2
2023-08-29T00:19:22.454Z,0.3
2023-08-29T00:20:31.121Z,0.2
2023-08-29T00:21:40.851Z,0.3
2023-08-29T00:22:48.529Z,0.3
2023-08-29T00:23:58.233Z,0.2
2023-08-29T00:25:07.895Z,0.2
2023-08-29T00:26:17.565Z,0.2
2023-08-29T00:27:27.257Z,0.3
2023-08-29T00:28:35.967Z,0.3
2023-08-29T00:29:44.676Z,0.3
2023-08-29T00:30:53.332Z,0.3
2023-08-29T00:32:02.066Z,0.3
2023-08-29T00:33:11.693Z,0.4
2023-08-29T00:34:20.371Z,0.3
2023-08-29T00:35:28.048Z,0.3
2023-08-29T00:36:37.748Z,0.3
2023-08-29T00:37:46.474Z,0.3
2023-08-29T00:38:55.130Z,0.3
2023-08-29T00:40:04.818Z,0.4
2023-08-29T00:41:12.461Z,0.3
2023-08-29T00:42:22.192Z,0.3
2023-08-29T00:43:31.892Z,0.4
2023-08-29T00:44:40.562Z,0.4
2023-08-29T00:45:50.259Z,0.4
2023-08-29T00:46:58.940Z,0.3
2023-08-29T00:48:09.185Z,0.3
2023-08-29T00:49:18.674Z,0.4
2023-08-29T00:50:28.370Z,0.4
2023-08-29T00:51:38.066Z,0.5
2023-08-29T00:52:46.746Z,0.4
2023-08-29T00:53:55.447Z,0.4
2023-08-29T00:55:05.151Z,0.5
2023-08-29T00:56:13.885Z,0.3
2023-08-29T00:57:23.558Z,0.3
2023-08-29T00:58:33.214Z,0.3
2023-08-29T00:59:41.898Z,0.4
2023-08-29T01:00:50.619Z,0.3
2023-08-29T01:02:00.267Z,0.4
2023-08-29T01:03:09.969Z,0.6
2023-08-29T01:04:18.656Z,0.3
2023-08-29T01:05:27.312Z,0.4
2023-08-29T01:06:36.984Z,0.4
2023-08-29T01:07:45.675Z,0.5
2023-08-29T01:08:54.325Z,0.5
2023-08-29T01:10:03.110Z,0.4
2023-08-29T01:11:12.774Z,0.5
2023-08-29T01:12:21.473Z,0.4
2023-08-29T01:13:30.104Z,0.4
2023-08-29T01:14:39.845Z,0.7
2023-08-29T01:15:47.529Z,0.5
2023-08-29T01:16:57.179Z,0.4
2023-08-29T01:18:06.080Z,0.3
2023-08-29T01:19:14.654Z,0.3
2023-08-29T01:20:24.310Z,0.4
2023-08-29T01:21:32.997Z,0.3
2023-08-29T01:22:42.685Z,0.3
2023-08-29T01:23:52.364Z,0.3
2023-08-29T01:25:01.046Z,0.3
2023-08-29T01:26:12.966Z,0.2
2023-08-29T01:27:19.476Z,0.2
2023-08-29T01:28:27.171Z,0.2
2023-08-29T01:29:36.866Z,0.2
2023-08-29T01:30:44.554Z,0.3
2023-08-29T01:31:53.214Z,0.4
2023-08-29T01:33:02.930Z,0.3
2023-08-29T01:34:10.610Z,0.3
2023-08-29T01:35:24.681Z,0.4
2023-08-29T01:36:32.905Z,0.5
2023-08-29T01:37:41.575Z,0.2
2023-08-29T01:38:51.282Z,0.3
2023-08-29T01:39:58.952Z,0.4
2023-08-29T01:41:07.818Z,0.5
2023-08-29T01:42:17.328Z,0.4
2023-08-29T01:43:26.001Z,0.4
2023-08-29T01:44:35.740Z,0.4
2023-08-29T01:45:44.477Z,0.5
2023-08-29T01:46:52.046Z,0.5
2023-08-29T01:48:01.771Z,0.3
2023-08-29T01:49:09.443Z,0.4
2023-08-29T01:50:18.120Z,0.3
2023-08-29T01:51:27.811Z,0.5
2023-08-29T01:52:35.505Z,0.3
2023-08-29T01:53:45.179Z,0.4
2023-08-29T01:54:54.888Z,0.3
2023-08-29T01:56:02.510Z,0.4
2023-08-29T01:57:12.197Z,0.7
2023-08-29T01:58:20.870Z,0.4
2023-08-29T01:59:30.574Z,0.4
2023-08-29T02:00:40.319Z,0.5
2023-08-29T02:01:50.016Z,0.4
2023-08-29T02:02:58.681Z,0.5
2023-08-29T02:04:08.376Z,0.5
2023-08-29T02:05:17.041Z,0.3
2023-08-29T02:06:26.777Z,0.4
2023-08-29T02:07:35.447Z,0.3
2023-08-29T02:08:44.174Z,0.4
2023-08-29T02:09:53.851Z,0.5
2023-08-29T02:11:03.576Z,0.4
2023-08-29T02:12:13.231Z,0.5
2023-08-29T02:13:22.962Z,0.5
2023-08-29T02:14:31.651Z,0.4
2023-08-29T02:15:40.354Z,0.4
2023-08-29T02:16:49.102Z,0.4
2023-08-29T02:17:57.859Z,0.3
2023-08-29T02:19:07.494Z,0.4
2023-08-29T02:20:15.168Z,0.4
2023-08-29T02:21:24.868Z,0.4
2023-08-29T02:22:33.572Z,0.2
2023-08-29T02:23:42.285Z,0.4
2023-08-29T02:24:51.964Z,0.5
2023-08-29T02:26:00.658Z,0.5
2023-08-29T02:27:10.391Z,0.4
2023-08-29T02:28:20.059Z,0.8
2023-08-29T02:29:27.772Z,0.7
2023-08-29T02:30:37.457Z,0.8
2023-08-29T02:31:46.166Z,0.9
2023-08-29T02:32:54.963Z,0.7
2023-08-29T02:34:05.563Z,0.6
2023-08-29T02:35:13.220Z,0.8
2023-08-29T02:36:21.948Z,0.8
2023-08-29T02:37:31.634Z,0.7
2023-08-29T02:38:39.340Z,0.6
2023-08-29T02:39:49.006Z,0.9
2023-08-29T02:40:56.659Z,0.3
2023-08-29T02:42:04.351Z,0.4
2023-08-29T02:43:14.052Z,0.6
2023-08-29T02:44:22.797Z,0.7
2023-08-29T02:45:31.491Z,1
2023-08-29T02:46:41.246Z,0.7
2023-08-29T02:47:48.897Z,0.7
2023-08-29T02:48:58.639Z,0.7
2023-08-29T02:50:08.284Z,0.7
2023-08-29T02:51:17.063Z,0.5
2023-08-29T02:52:26.849Z,0.6
2023-08-29T02:53:35.545Z,0.6
2023-08-29T02:54:44.259Z,0.4
2023-08-29T02:55:53.974Z,0.6
2023-08-29T02:57:01.616Z,0.7
2023-08-29T02:58:10.327Z,0.5
2023-08-29T02:59:20.024Z,0.6
2023-08-29T03:00:28.836Z,0.7
2023-08-29T03:01:37.475Z,0.6
2023-08-29T03:02:47.270Z,0.6
2023-08-29T03:03:55.959Z,0.5
2023-08-29T03:05:05.653Z,0.6
2023-08-29T03:06:14.297Z,0.6
2023-08-29T03:07:21.979Z,0.5
2023-08-29T03:08:31.701Z,0.5
2023-08-29T03:09:41.410Z,0.5
2023-08-29T03:10:50.109Z,0.5
2023-08-29T03:11:59.795Z,0.4
2023-08-29T03:13:09.470Z,0.5
2023-08-29T03:14:19.217Z,0.4
2023-08-29T03:15:28.918Z,0.4
2023-08-29T03:16:38.648Z,0.4
2023-08-29T03:17:48.334Z,0.4
2023-08-29T03:18:55.993Z,0.4
2023-08-29T03:20:04.656Z,0.2
2023-08-29T03:21:14.426Z,0.3
2023-08-29T03:22:22.072Z,0.4
2023-08-29T03:23:31.772Z,0.4
2023-08-29T03:24:40.500Z,0.4
2023-08-29T03:25:49.194Z,0.5
2023-08-29T03:26:58.916Z,0.3
2023-08-29T03:28:08.842Z,0.4
2023-08-29T03:29:17.372Z,0.4
2023-08-29T03:30:27.047Z,0.3
2023-08-29T03:31:36.765Z,0.3
2023-08-29T03:32:46.474Z,0.3
2023-08-29T03:33:56.147Z,0.5
2023-08-29T03:35:05.833Z,0.2
2023-08-29T03:36:14.549Z,0.3
2023-08-29T03:37:23.315Z,0.3
2023-08-29T03:38:32.992Z,0.2
2023-08-29T03:39:42.661Z,0.3
2023-08-29T03:40:50.418Z,0.3
2023-08-29T03:42:00.123Z,0.4
2023-08-29T03:43:09.810Z,0.3
2023-08-29T03:44:19.490Z,0.4
2023-08-29T03:45:29.167Z,0.3
2023-08-29T03:46:37.876Z,0.4
2023-08-29T03:47:47.630Z,0.4
2023-08-29T03:48:57.218Z,0.4
2023-08-29T03:50:05.897Z,0.5
2023-08-29T03:51:15.589Z,0.5
2023-08-29T03:52:25.309Z,0.4
2023-08-29T03:53:33.976Z,0.5
2023-08-29T03:54:43.663Z,0.5
2023-08-29T03:55:50.341Z,0.5
2023-08-29T03:57:00.064Z,0.5
2023-08-29T03:58:09.790Z,0.4
2023-08-29T03:59:17.438Z,0.6
2023-08-29T04:00:27.120Z,0.5
2023-08-29T04:01:35.782Z,0.7
2023-08-29T04:02:44.505Z,0.4
2023-08-29T04:03:54.550Z,0.7
2023-08-29T04:05:02.946Z,0.7
2023-08-29T04:06:12.612Z,0.4
2023-08-29T04:07:22.256Z,0.3
2023-08-29T04:08:30.980Z,0.5
2023-08-29T04:09:40.668Z,0.6
2023-08-29T04:10:50.381Z,0.6
2023-08-29T04:11:59.079Z,0.8
2023-08-29T04:13:08.926Z,0.7
2023-08-29T04:14:17.607Z,0.6
2023-08-29T04:15:26.328Z,0.6
2023-08-29T04:16:36.073Z,0.7
2023-08-29T04:17:43.741Z,0.9
2023-08-29T04:18:54.478Z,0.6
2023-08-29T04:20:02.080Z,0.8
2023-08-29T04:21:10.835Z,0.7
2023-08-29T04:22:20.532Z,1.1
2023-08-29T04:23:29.231Z,0.7
2023-08-29T04:24:37.941Z,0.7
2023-08-29T04:25:47.633Z,0.9
2023-08-29T04:26:55.288Z,0.9
2023-08-29T04:28:05.265Z,0.8
2023-08-29T04:29:13.915Z,0.7
2023-08-29T04:30:22.645Z,0.6
2023-08-29T04:31:31.316Z,0.6
2023-08-29T04:32:40.076Z,0.7
2023-08-29T04:33:49.676Z,0.7
2023-08-29T04:34:59.373Z,0.7
2023-08-29T04:36:09.043Z,0.9
2023-08-29T04:37:18.802Z,0.7
2023-08-29T04:38:28.500Z,0.6
2023-08-29T04:39:37.628Z,0.8
2023-08-29T04:40:47.004Z,0.6
2023-08-29T04:41:54.678Z,0.7
2023-08-29T04:43:04.525Z,0.6
2023-08-29T04:44:14.240Z,0.6
2023-08-29T04:45:22.923Z,0.6
2023-08-29T04:46:32.662Z,0.9
2023-08-29T04:47:41.381Z,0.7
2023-08-29T04:48:49.039Z,0.9
2023-08-29T04:49:58.723Z,0.6
2023-08-29T04:51:07.402Z,0.5
2023-08-29T04:52:17.125Z,0.4
2023-08-29T04:53:26.772Z,0.6
2023-08-29T04:54:35.455Z,0.6
2023-08-29T04:55:44.150Z,0.6
2023-08-29T04:56:53.843Z,0.6
2023-08-29T04:58:01.526Z,0.6
2023-08-29T04:59:10.194Z,0.7
2023-08-29T05:00:19.892Z,0.4
2023-08-29T05:01:27.615Z,0.6
2023-08-29T05:02:37.521Z,0.5
2023-08-29T05:03:47.200Z,0.6
2023-08-29T05:04:54.870Z,0.7
2023-08-29T05:06:04.549Z,0.5
2023-08-29T05:07:14.220Z,0.5
2023-08-29T05:08:23.908Z,0.8
2023-08-29T05:09:33.632Z,0.6
2023-08-29T05:10:41.326Z,0.6
2023-08-29T05:11:51.041Z,0.8
2023-08-29T05:13:00.770Z,0.7
2023-08-29T05:14:09.399Z,0.7
2023-08-29T05:15:19.254Z,0.6
2023-08-29T05:16:28.916Z,0.6
2023-08-29T05:17:38.623Z,0.3
2023-08-29T05:18:48.313Z,0.4
2023-08-29T05:19:56.030Z,0.3
2023-08-29T05:21:05.721Z,0.3
2023-08-29T05:22:14.397Z,0.3
2023-08-29T05:23:22.089Z,0.2
2023-08-29T05:24:31.898Z,0.4
2023-08-29T05:25:39.565Z,0.4
2023-08-29T05:26:48.297Z,0.4
2023-08-29T05:27:57.977Z,0.2
2023-08-29T05:29:07.739Z,0.3
2023-08-29T05:30:17.398Z,0.3
2023-08-29T05:31:25.120Z,0.4
2023-08-29T05:32:33.772Z,0.2
2023-08-29T05:33:43.404Z,0.3
2023-08-29T05:34:51.071Z,0.3
2023-08-29T05:35:59.765Z,0.5
2023-08-29T05:37:09.430Z,0.3
2023-08-29T05:38:17.118Z,0.4
2023-08-29T05:39:26.894Z,0.4
2023-08-29T05:40:35.552Z,0.6
2023-08-29T05:41:43.254Z,0.4
2023-08-29T05:42:53.016Z,0.4
2023-08-29T05:44:00.751Z,0.5
2023-08-29T05:45:09.448Z,0.5
2023-08-29T05:46:19.122Z,0.5
2023-08-29T05:47:28.852Z,0.6
2023-08-29T05:48:38.520Z,1.1
2023-08-29T05:49:47.259Z,1.2
2023-08-29T05:50:54.920Z,1.5
2023-08-29T05:52:05.638Z,0.8
2023-08-29T05:53:14.379Z,0.7
2023-08-29T05:54:23.058Z,1.1
2023-08-29T05:55:32.734Z,1.2
2023-08-29T05:56:42.421Z,0.9
2023-08-29T05:57:52.086Z,1.3
2023-08-29T05:59:01.778Z,0.9
2023-08-29T06:00:10.472Z,0.9
2023-08-29T06:01:20.249Z,0.9
2023-08-29T06:02:28.953Z,0.8
2023-08-29T06:03:37.687Z,1.2
2023-08-29T06:04:47.261Z,0.9
2023-08-29T06:05:55.078Z,1.1
2023-08-29T06:07:04.715Z,1.2
2023-08-29T06:08:19.514Z,1.1
2023-08-29T06:09:23.034Z,1
2023-08-29T06:10:32.716Z,0.6
2023-08-29T06:11:41.447Z,1.2
2023-08-29T06:12:51.148Z,0.9
2023-08-29T06:14:00.829Z,1
2023-08-29T06:15:10.966Z,0.8
2023-08-29T06:16:19.672Z,1
2023-08-29T06:17:28.320Z,1
2023-08-29T06:18:36.007Z,1.3
2023-08-29T06:19:45.670Z,0.8
2023-08-29T06:20:55.410Z,1
2023-08-29T06:22:04.097Z,1.4
2023-08-29T06:23:13.782Z,1.1
2023-08-29T06:24:23.467Z,1
2023-08-29T06:25:33.152Z,1.2
2023-08-29T06:26:41.883Z,1
2023-08-29T06:27:49.586Z,0.8
2023-08-29T06:28:59.289Z,1.1
2023-08-29T06:30:07.983Z,1
2023-08-29T06:31:16.767Z,0.9
2023-08-29T06:32:26.416Z,1
2023-08-29T06:33:34.148Z,0.9
2023-08-29T06:34:43.833Z,0.7
2023-08-29T06:35:52.508Z,0.9
2023-08-29T06:37:00.209Z,0.7
2023-08-29T06:38:10.128Z,1
2023-08-29T06:39:17.710Z,0.9
2023-08-29T06:40:26.425Z,0.8
2023-08-29T06:41:36.138Z,0.6
2023-08-29T06:42:45.836Z,0.8
2023-08-29T06:43:55.518Z,0.6
2023-08-29T06:45:04.187Z,0.7
2023-08-29T06:46:12.871Z,0.6
2023-08-29T06:47:22.586Z,0.8
2023-08-29T06:48:32.287Z,0.8
2023-08-29T06:49:40.992Z,0.7
2023-08-29T06:50:50.638Z,0.8
2023-08-29T06:51:58.321Z,0.8
2023-08-29T06:53:08.001Z,1
2023-08-29T06:54:16.737Z,0.9
2023-08-29T06:55:24.402Z,1
2023-08-29T06:56:34.093Z,0.8
2023-08-29T06:57:43.778Z,0.9
2023-08-29T06:58:51.464Z,1.2
2023-08-29T07:00:01.148Z,1
2023-08-29T07:01:10.845Z,0.9
2023-08-29T07:02:18.501Z,0.9
2023-08-29T07:03:28.298Z,0.9
2023-08-29T07:04:35.893Z,1.1
2023-08-29T07:05:44.607Z,0.8
2023-08-29T07:06:54.252Z,1
2023-08-29T07:08:01.997Z,0.8
2023-08-29T07:09:11.642Z,0.9
2023-08-29T07:10:21.369Z,0.5
2023-08-29T07:11:30.059Z,0.5
2023-08-29T07:12:39.762Z,0.4
2023-08-29T07:13:47.445Z,0.4
2023-08-29T07:14:57.096Z,0.3
2023-08-29T07:16:06.856Z,0.3
2023-08-29T07:17:16.739Z,0.4
2023-08-29T07:18:26.407Z,0.2
2023-08-29T07:19:36.115Z,0.3
2023-08-29T07:20:44.810Z,0.4
2023-08-29T07:21:54.759Z,0.4
2023-08-29T07:23:05.167Z,0.4
2023-08-29T07:24:15.597Z,0.5
2023-08-29T07:25:24.646Z,0.3
2023-08-29T07:26:32.311Z,0.2
2023-08-29T07:27:42.034Z,0.5
2023-08-29T07:28:50.743Z,0.4
2023-08-29T07:29:59.440Z,0.3
2023-08-29T07:31:09.165Z,0.4
2023-08-29T07:32:16.828Z,0.4
2023-08-29T07:33:26.516Z,0.3
2023-08-29T07:34:36.199Z,0.3
2023-08-29T07:35:43.987Z,0.3
2023-08-29T07:36:53.734Z,0.4
2023-08-29T07:38:01.509Z,0.3
2023-08-29T07:39:09.201Z,0.3
2023-08-29T07:40:18.919Z,0.4
2023-08-29T07:41:27.659Z,0.3
2023-08-29T07:42:36.394Z,0.3
2023-08-29T07:43:46.071Z,0.3
2023-08-29T07:44:55.806Z,0.3
2023-08-29T07:46:05.542Z,0.4
2023-08-29T07:47:16.089Z,0.3
2023-08-29T07:48:23.884Z,0.3
2023-08-29T07:49:33.620Z,0.3
2023-08-29T07:50:42.331Z,0.2
2023-08-29T07:51:51.008Z,0.5
2023-08-29T07:53:00.717Z,0.4
2023-08-29T07:54:09.466Z,0.3
2023-08-29T07:55:19.162Z,0.4
2023-08-29T07:56:28.864Z,0.3
2023-08-29T07:57:37.524Z,0.3
2023-08-29T07:58:47.231Z,0.2
2023-08-29T07:59:54.968Z,0.3
2023-08-29T08:01:03.650Z,0.2
2023-08-29T08:02:13.334Z,0.2
2023-08-29T08:03:22.017Z,0.1
2023-08-29T08:04:31.694Z,0.2
2023-08-29T08:05:40.403Z,0.3
2023-08-29T08:06:49.175Z,0.4
2023-08-29T08:07:58.787Z,0.2
2023-08-29T08:09:06.497Z,0.3
2023-08-29T08:10:16.444Z,0.3
2023-08-29T08:11:26.145Z,0.3
2023-08-29T08:12:34.840Z,0.3
2023-08-29T08:13:44.532Z,0.2
2023-08-29T08:14:53.200Z,0.1
2023-08-29T08:16:04.351Z,0.2
2023-08-29T08:17:13.572Z,0.3
2023-08-29T08:18:21.230Z,0.2
2023-08-29T08:19:29.930Z,0.2
2023-08-29T08:20:39.603Z,0.2
2023-08-29T08:21:51.168Z,0.1
2023-08-29T08:22:59.961Z,0.2
2023-08-29T08:24:09.655Z,0.3
2023-08-29T08:25:17.307Z,0.2
2023-08-29T08:26:27.035Z,0.3
2023-08-29T08:27:34.696Z,0.4
2023-08-29T08:28:43.345Z,0.4
2023-08-29T08:29:52.025Z,0.4
2023-08-29T08:31:00.699Z,0.3
2023-08-29T08:32:10.383Z,0.2
2023-08-29T08:33:20.152Z,0.1
2023-08-29T08:34:28.788Z,0.2
2023-08-29T08:35:38.790Z,0.3
2023-08-29T08:36:49.111Z,0.2
2023-08-29T08:37:58.831Z,0.2
2023-08-29T08:39:08.658Z,0.2
2023-08-29T08:40:17.330Z,0.3
2023-08-29T08:41:27.015Z,0.3
2023-08-29T08:42:34.742Z,0.2
2023-08-29T08:43:43.408Z,0.2
2023-08-29T08:44:53.136Z,0.3
2023-08-29T08:46:00.841Z,0.3
2023-08-29T08:47:09.452Z,0.5
2023-08-29T08:48:19.156Z,0.3
2023-08-29T08:49:27.808Z,0.3
2023-08-29T08:50:37.659Z,0.4
2023-08-29T08:51:47.283Z,0.4
2023-08-29T08:52:55.960Z,0.4
2023-08-29T08:54:05.659Z,0.4
2023-08-29T08:55:15.323Z,0.1
2023-08-29T08:56:25.131Z,0.2
2023-08-29T08:57:34.790Z,0.2
2023-08-29T08:58:43.497Z,0.3
2023-08-29T08:59:51.170Z,0.2
2023-08-29T09:01:00.891Z,0.3
2023-08-29T09:02:08.572Z,0.2
2023-08-29T09:03:17.346Z,0.4
2023-08-29T09:04:27.024Z,0.2
2023-08-29T09:05:35.612Z,0.3
2023-08-29T09:06:45.276Z,0.2
2023-08-29T09:07:54.954Z,0.2
2023-08-29T09:09:02.621Z,0.2
2023-08-29T09:10:12.309Z,0.4
2023-08-29T09:11:20.964Z,0.1
2023-08-29T09:12:30.665Z,0.2
2023-08-29T09:13:40.400Z,0.2
2023-08-29T09:14:48.196Z,0.3
2023-08-29T09:15:57.738Z,0.2
2023-08-29T09:17:06.413Z,0.1
2023-08-29T09:18:16.071Z,0.1
2023-08-29T09:19:25.797Z,0.1
2023-08-29T09:20:33.471Z,0.2
2023-08-29T09:21:42.123Z,0.1
2023-08-29T09:22:51.818Z,0.1
2023-08-29T09:24:00.498Z,0.1
2023-08-29T09:25:10.204Z,0.1
2023-08-29T09:26:19.890Z,0.2
2023-08-29T09:27:27.546Z,0.2
2023-08-29T09:28:37.217Z,0.4
2023-08-29T09:29:44.867Z,0.2
2023-08-29T09:30:53.586Z,0.2
2023-08-29T09:32:03.238Z,0.2
2023-08-29T09:33:12.929Z,0.3
2023-08-29T09:34:22.613Z,0.2
2023-08-29T09:35:31.242Z,0.1
2023-08-29T09:36:39.929Z,0.2
2023-08-29T09:37:49.588Z,0.2
2023-08-29T09:38:57.311Z,0.2
2023-08-29T09:40:14.238Z,0.2
2023-08-29T09:41:16.722Z,0.3
2023-08-29T09:42:26.412Z,0.2
2023-08-29T09:43:35.069Z,0.1
2023-08-29T09:44:43.727Z,0.2
2023-08-29T09:45:51.508Z,0.1
2023-08-29T09:47:01.182Z,0.2
2023-08-29T09:48:10.269Z,0.1
2023-08-29T09:49:19.542Z,0.2
2023-08-29T09:50:29.200Z,0.1
2023-08-29T09:51:36.920Z,0.2
2023-08-29T09:52:45.570Z,0.2
2023-08-29T09:53:55.399Z,0.2
2023-08-29T09:55:03.116Z,0.3
2023-08-29T09:56:11.760Z,0.3
2023-08-29T09:57:19.447Z,0.3
2023-08-29T09:58:29.144Z,0.2
2023-08-29T09:59:38.830Z,0.2
2023-08-29T10:00:47.601Z,0.1
2023-08-29T10:01:57.246Z,0.1
2023-08-29T10:03:07.070Z,0
2023-08-29T10:04:14.695Z,0.1
2023-08-29T10:05:24.359Z,0.1
2023-08-29T10:06:32.051Z,0.1
2023-08-29T10:07:40.808Z,0.1
2023-08-29T10:08:50.478Z,0.2
2023-08-29T10:10:00.146Z,0.3
2023-08-29T10:11:09.835Z,0.3
2023-08-29T10:12:19.533Z,0.2
2023-08-29T10:13:27.263Z,0.1
2023-08-29T10:14:36.926Z,0.1
2023-08-29T10:15:45.596Z,0.1
2023-08-29T10:16:54.354Z,0.1
2023-08-29T10:18:04.103Z,0.1
2023-08-29T10:19:12.196Z,0.1
2023-08-29T10:20:21.732Z,0.1
2023-08-29T10:21:30.385Z,0.1
2023-08-29T10:22:39.143Z,0.3
2023-08-29T10:23:48.852Z,0.2
2023-08-29T10:24:56.518Z,0.3
2023-08-29T10:26:05.214Z,0.1
2023-08-29T10:27:14.866Z,0.2
2023-08-29T10:28:23.613Z,0.2
2023-08-29T10:29:33.308Z,0.3
2023-08-29T10:30:43.049Z,0.2
2023-08-29T10:31:52.704Z,0.4
2023-08-29T10:33:02.414Z,0.3
2023-08-29T10:34:10.106Z,0.5
2023-08-29T10:35:19.823Z,0.2
2023-08-29T10:36:29.465Z,0.3
2023-08-29T10:37:38.172Z,0.4
2023-08-29T10:38:47.902Z,0.2
2023-08-29T10:39:56.614Z,0.2
2023-08-29T10:41:06.301Z,0.2
2023-08-29T10:42:16.055Z,0.1
2023-08-29T10:43:25.954Z,0.1
2023-08-29T10:44:34.658Z,0.1
2023-08-29T10:45:44.354Z,0.2
2023-08-29T10:46:54.053Z,0.2
2023-08-29T10:48:03.772Z,0.2
2023-08-29T10:49:12.466Z,0.2
2023-08-29T10:50:21.164Z,0.2
2023-08-29T10:51:29.840Z,0.1
2023-08-29T10:52:39.527Z,0.3
2023-08-29T10:53:48.640Z,0.1
2023-08-29T10:54:58.338Z,0.2
2023-08-29T10:56:07.008Z,0.3
2023-08-29T10:57:14.662Z,0.2
2023-08-29T10:58:24.317Z,0.3
2023-08-29T10:59:34.031Z,0.4
2023-08-29T11:00:42.709Z,0.4
2023-08-29T11:01:52.383Z,0.3
2023-08-29T11:03:02.087Z,0.3
2023-08-29T11:04:11.755Z,0.2
2023-08-29T11:05:21.447Z,0.3
2023-08-29T11:06:30.182Z,0.1
2023-08-29T11:07:39.799Z,0
2023-08-29T11:08:48.480Z,0.1
2023-08-29T11:09:57.149Z,0.1
2023-08-29T11:11:07.038Z,0
2023-08-29T11:12:15.731Z,0.1
2023-08-29T11:13:25.377Z,0.1
2023-08-29T11:14:34.071Z,0
2023-08-29T11:15:42.740Z,0.2
2023-08-29T11:16:52.477Z,0.1
2023-08-29T11:18:01.189Z,0.2
2023-08-29T11:19:10.865Z,0.2
2023-08-29T11:20:20.611Z,0.2
2023-08-29T11:21:29.233Z,0.2
2023-08-29T11:22:39.026Z,0.1
2023-08-29T11:23:47.791Z,0.1
2023-08-29T11:24:56.286Z,0.1
2023-08-29T11:26:05.977Z,0.1
2023-08-29T11:27:14.656Z,0.2
2023-08-29T11:28:24.332Z,0.1
2023-08-29T11:29:34.008Z,0.2
2023-08-29T11:30:45.058Z,0.4
2023-08-29T11:31:54.343Z,0.2
2023-08-29T11:33:04.062Z,0.2
2023-08-29T11:34:13.768Z,0.3
2023-08-29T11:35:23.518Z,0.2
2023-08-29T11:36:31.247Z,0.1
2023-08-29T11:37:40.940Z,0.2
2023-08-29T11:38:52.694Z,0.3
2023-08-29T11:40:00.321Z,0.3
2023-08-29T11:41:16.565Z,0.2
2023-08-29T11:42:21.513Z,0.3
2023-08-29T11:43:43.839Z,0.5
2023-08-29T11:44:51.661Z,0.4
2023-08-29T11:45:56.216Z,0.5
2023-08-29T11:47:02.400Z,0.4
2023-08-29T11:48:12.173Z,0.5
2023-08-29T11:49:21.874Z,0.9
2023-08-29T11:50:31.516Z,1.2
2023-08-29T11:51:40.211Z,0.8
2023-08-29T11:52:50.001Z,0.7
2023-08-29T11:53:59.684Z,0.1
2023-08-29T11:55:08.327Z,0
2023-08-29T11:56:17.014Z,0.1
2023-08-29T11:57:26.708Z,0.2
2023-08-29T11:58:34.449Z,0.1
2023-08-29T11:59:44.123Z,0.1
2023-08-29T12:00:53.836Z,0.1
2023-08-29T12:02:02.489Z,0.2
2023-08-29T12:03:12.188Z,0.2
2023-08-29T12:04:21.976Z,0
2023-08-29T12:05:31.639Z,0.1
2023-08-29T12:06:41.286Z,0.1
2023-08-29T12:07:49.029Z,0.1
2023-08-29T12:08:59.562Z,0.1
2023-08-29T12:10:07.488Z,0.1
2023-08-29T12:11:16.073Z,0.1
2023-08-29T12:12:25.750Z,0.1
2023-08-29T12:13:36.499Z,0.2
2023-08-29T12:14:45.175Z,0.2
2023-08-29T12:15:54.865Z,0.3
2023-08-29T12:17:02.541Z,0.2
2023-08-29T12:18:12.269Z,0.2
2023-08-29T12:19:20.891Z,0.2
2023-08-29T12:20:28.538Z,0.3
2023-08-29T12:21:38.244Z,0.3
2023-08-29T12:22:47.900Z,0.4
2023-08-29T12:23:56.614Z,0.3
2023-08-29T12:25:06.249Z,0.3
2023-08-29T12:26:13.935Z,0.2
2023-08-29T12:27:23.618Z,0.2
2023-08-29T12:28:32.253Z,0.2
2023-08-29T12:29:39.999Z,0.1
2023-08-29T12:30:49.696Z,0.2
2023-08-29T12:31:58.348Z,0.3
2023-08-29T12:33:08.084Z,0.1
2023-08-29T12:34:17.825Z,0.1
2023-08-29T12:35:24.489Z,0.2
2023-08-29T12:36:34.167Z,0.1
2023-08-29T12:37:43.813Z,0.2
2023-08-29T12:38:51.525Z,0.1
2023-08-29T12:40:01.217Z,0.1
2023-08-29T12:41:10.857Z,0.1
2023-08-29T12:42:19.550Z,0.2
2023-08-29T12:43:29.211Z,0.2
2023-08-29T12:44:37.878Z,0.2
2023-08-29T12:45:57.194Z,0.2
2023-08-29T12:46:57.215Z,0.2
2023-08-29T12:48:07.120Z,0.2
2023-08-29T12:49:16.594Z,0.1
2023-08-29T12:50:26.349Z,0.1
2023-08-29T12:51:35.049Z,0.1
2023-08-29T12:52:43.735Z,0.1
2023-08-29T12:53:52.446Z,0.2
2023-08-29T12:55:00.165Z,0.1
2023-08-29T12:56:11.966Z,0.1
2023-08-29T12:57:18.586Z,0.3
2023-08-29T12:58:28.370Z,0.1
2023-08-29T12:59:38.005Z,0.1
2023-08-29T13:00:44.675Z,0.1
2023-08-29T13:01:54.359Z,0.2
2023-08-29T13:03:03.019Z,0.1
2023-08-29T13:04:11.719Z,0.1
2023-08-29T13:05:21.384Z,0.1
2023-08-29T13:06:31.032Z,0
2023-08-29T13:07:39.687Z,0.1
2023-08-29T13:08:49.344Z,0.1
2023-08-29T13:09:59.018Z,0.1
2023-08-29T13:11:08.729Z,0.1
2023-08-29T13:12:17.370Z,0.2
2023-08-29T13:13:25.021Z,0.1
2023-08-29T13:14:38.184Z,0.2
2023-08-29T13:15:50.814Z,0.1
2023-08-29T13:16:55.082Z,0.1
2023-08-29T13:18:03.794Z,0.1
2023-08-29T13:19:12.408Z,0.1
2023-08-29T13:20:22.103Z,0.1
2023-08-29T13:21:31.758Z,0.1
2023-08-29T13:22:39.413Z,0.1
2023-08-29T13:23:49.107Z,0.1
2023-08-29T13:24:56.874Z,0.2
2023-08-29T13:26:06.556Z,0
2023-08-29T13:27:16.229Z,0.1
2023-08-29T13:28:23.903Z,0.1
2023-08-29T13:29:33.657Z,0.1
2023-08-29T13:30:42.298Z,0
2023-08-29T13:31:50.026Z,0.1
2023-08-29T13:32:59.745Z,0.1
2023-08-29T13:34:07.381Z,0.1
2023-08-29T13:35:17.095Z,0.1
2023-08-29T13:36:26.772Z,0.1
2023-08-29T13:37:35.474Z,0.1
2023-08-29T13:38:45.215Z,0.2
2023-08-29T13:39:54.900Z,0.1
2023-08-29T13:41:02.545Z,0.1
2023-08-29T13:42:12.202Z,0.2
2023-08-29T13:43:19.904Z,0.1
2023-08-29T13:44:29.619Z,0.1
2023-08-29T13:45:39.273Z,0.1
2023-08-29T13:46:48.985Z,0.2
2023-08-29T13:47:58.695Z,0.1
2023-08-29T13:49:07.294Z,0.1
2023-08-29T13:50:17.053Z,0
2023-08-29T13:51:26.725Z,0.1
2023-08-29T13:52:34.376Z,0.1
2023-08-29T13:53:43.119Z,0
2023-08-29T13:54:51.817Z,0
2023-08-29T13:55:59.451Z,0
2023-08-29T13:57:09.128Z,0.1
2023-08-29T13:58:17.789Z,0.1
2023-08-29T13:59:26.495Z,0.1
2023-08-29T14:00:36.188Z,0.1
2023-08-29T14:01:44.011Z,0.2
2023-08-29T14:02:53.905Z,0.1
2023-08-29T14:04:03.533Z,0.3
2023-08-29T14:05:12.210Z,0.2
2023-08-29T14:06:21.868Z,0.2
2023-08-29T14:07:30.556Z,0.2
2023-08-29T14:08:38.210Z,0.3
2023-08-29T14:09:47.924Z,0.3
2023-08-29T14:10:55.560Z,0.2
2023-08-29T14:12:04.259Z,0.2
2023-08-29T14:13:13.919Z,0.2
2023-08-29T14:14:23.602Z,0.3
2023-08-29T14:15:33.345Z,0.1
2023-08-29T14:16:43.583Z,0.1
2023-08-29T14:17:51.752Z,0.2
2023-08-29T14:19:01.344Z,0.3
2023-08-29T14:20:10.011Z,0.2
2023-08-29T14:21:22.598Z,0.3
2023-08-29T14:22:32.314Z,0.2
2023-08-29T14:23:39.977Z,0.2
2023-08-29T14:24:49.634Z,0.3
2023-08-29T14:25:58.333Z,0.3
2023-08-29T14:27:06.973Z,0.2
2023-08-29T14:28:16.685Z,0.3
2023-08-29T14:29:25.390Z,0.2
2023-08-29T14:30:34.090Z,0.2
2023-08-29T14:31:43.799Z,0.2
2023-08-29T14:32:51.453Z,0.3
2023-08-29T14:34:01.087Z,0.2
2023-08-29T14:35:10.758Z,0.3
2023-08-29T14:36:18.439Z,0.2
2023-08-29T14:37:28.104Z,0.2
2023-08-29T14:38:37.767Z,0.2
2023-08-29T14:39:46.495Z,0.4
2023-08-29T14:40:56.074Z,0.3
2023-08-29T14:42:04.764Z,0.3
2023-08-29T14:43:14.418Z,0.2
2023-08-29T14:44:24.143Z,0.4
2023-08-29T14:45:33.925Z,0.3
2023-08-29T14:46:43.507Z,0.3
2023-08-29T14:47:53.311Z,0.3
2023-08-29T14:49:00.972Z,0.4
2023-08-29T14:50:10.632Z,0.4
2023-08-29T14:51:19.317Z,0.2
2023-08-29T14:52:26.936Z,0.2
2023-08-29T14:53:36.763Z,0.2
2023-08-29T14:54:45.346Z,0.3
2023-08-29T14:55:54.005Z,0.3
2023-08-29T14:57:02.700Z,0.4
2023-08-29T14:58:12.555Z,0.3
2023-08-29T14:59:22.205Z,0.5
2023-08-29T15:00:30.862Z,0.5
2023-08-29T15:01:40.618Z,0.4
2023-08-29T15:02:50.332Z,0.4
2023-08-29T15:03:58.983Z,0.3
2023-08-29T15:05:07.628Z,0.3
2023-08-29T15:06:17.321Z,0.3
2023-08-29T15:07:25.037Z,0.3
2023-08-29T15:08:34.695Z,0.2
2023-08-29T15:09:43.325Z,0.3
2023-08-29T15:10:51.004Z,0.4
2023-08-29T15:12:00.662Z,0.4
2023-08-29T15:13:09.350Z,0.3
2023-08-29T15:14:18.013Z,0.5
2023-08-29T15:15:27.749Z,0.3
2023-08-29T15:16:36.454Z,0.2
2023-08-29T15:17:46.160Z,0.3
2023-08-29T15:18:54.820Z,0.4
2023-08-29T15:20:02.525Z,0.2
2023-08-29T15:21:12.195Z,0.2
2023-08-29T15:22:19.877Z,0.4
2023-08-29T15:23:28.629Z,0.4
2023-08-29T15:24:38.220Z,0.3
2023-08-29T15:25:46.947Z,0.2
2023-08-29T15:26:56.609Z,0.4
2023-08-29T15:28:05.604Z,0.3
2023-08-29T15:29:12.933Z,0.3
2023-08-29T15:30:22.609Z,0.2
2023-08-29T15:31:32.321Z,0.2
2023-08-29T15:32:41.055Z,0.3
2023-08-29T15:33:50.634Z,0.3
2023-08-29T15:34:59.308Z,0.2
2023-08-29T15:36:08.980Z,0.4
2023-08-29T15:37:18.707Z,0.3
2023-08-29T15:38:26.370Z,0.3
2023-08-29T15:39:36.070Z,0.2
2023-08-29T15:40:44.794Z,0.2
2023-08-29T15:41:53.467Z,0.2
2023-08-29T15:43:03.115Z,0.1
2023-08-29T15:44:11.791Z,0.1
2023-08-29T15:45:21.445Z,0.2
2023-08-29T15:46:31.224Z,0.3
2023-08-29T15:47:39.926Z,0.2
2023-08-29T15:48:49.512Z,0.2
2023-08-29T15:49:59.171Z,0.3
2023-08-29T15:51:07.857Z,0.2
2023-08-29T15:52:17.979Z,0.4
2023-08-29T15:53:26.686Z,0.4